Time;durP1;ratioP1;P1;durP2;ratioP2;P2;SDS_P1;SDS_P2;PMS_P1;PMS_P2;Temp;Humidity;BMP_temperature;BMP_pressure;BME280_temperature;BME280_humidity;BME280_pressure;Samples;Min_cycle;Max_cycle;Signal;HPM_P1;HPM_P2
2023/03/20 00:00:16;;;;;;;91.53;38.87;;;;;;;9.22;100.00;101749.44;5108631;28;20283;-72
2023/03/20 00:02:41;;;;;;;80.47;38.60;;;;;;;9.22;100.00;101746.88;5089552;28;20699;-71
2023/03/20 00:05:20;;;;;;;88.37;38.37;;;;;;;9.24;100.00;101747.81;5090408;28;20283;-72
2023/03/20 00:07:48;;;;;;;91.70;41.13;;;;;;;9.24;100.00;101744.38;5104715;28;20562;-71
2023/03/20 00:10:15;;;;;;;89.40;40.60;;;;;;;9.20;100.00;101753.63;5107493;28;20206;-71
2023/03/20 00:12:42;;;;;;;92.30;40.90;;;;;;;9.19;100.00;101746.78;5107802;28;20640;-73
2023/03/20 00:15:22;;;;;;;89.80;39.07;;;;;;;9.23;100.00;101750.31;5108538;28;20188;-70
2023/03/20 00:17:47;;;;;;;87.20;40.33;;;;;;;9.23;100.00;101743.53;5108116;28;20211;-71
2023/03/20 00:20:15;;;;;;;89.40;39.73;;;;;;;9.25;100.00;101747.00;5108098;28;20199;-72
2023/03/20 00:22:40;;;;;;;92.33;38.07;;;;;;;9.25;100.00;101748.69;5107728;28;20302;-71
2023/03/20 00:25:06;;;;;;;86.43;39.37;;;;;;;9.26;100.00;101740.22;5089982;28;20278;-73
2023/03/20 00:27:32;;;;;;;80.40;37.53;;;;;;;9.25;100.00;101747.00;5105470;28;20191;-72
2023/03/20 00:29:57;;;;;;;75.93;37.50;;;;;;;9.25;100.00;101741.00;5090120;28;20256;-72
2023/03/20 00:32:23;;;;;;;79.70;37.17;;;;;;;9.23;100.00;101734.97;5107365;28;20211;-71
2023/03/20 00:34:48;;;;;;;76.53;35.73;;;;;;;9.26;100.00;101733.41;5108534;28;20191;-70
2023/03/20 00:37:14;;;;;;;72.87;34.33;;;;;;;9.27;100.00;101724.94;5103995;28;20704;-70
2023/03/20 00:39:40;;;;;;;71.53;33.77;;;;;;;9.26;100.00;101732.56;5108271;28;20270;-71
2023/03/20 00:42:12;;;;;;;66.87;34.00;;;;;;;9.25;100.00;101733.34;5107043;28;20256;-70
2023/03/20 00:44:49;;;;;;;62.23;32.03;;;;;;;9.25;100.00;101734.22;5089339;28;20196;-70
2023/03/20 00:47:23;;;;;;;66.87;32.80;;;;;;;9.25;100.00;101730.78;5107191;28;20191;-71
2023/03/20 00:49:50;;;;;;;67.57;32.10;;;;;;;9.23;100.00;101723.09;5106880;28;20187;-70
2023/03/20 00:52:19;;;;;;;68.47;32.20;;;;;;;9.24;100.00;101724.81;5089622;28;20195;-71
2023/03/20 00:54:45;;;;;;;66.13;33.10;;;;;;;9.21;100.00;101726.41;5105514;28;20258;-70
2023/03/20 00:57:28;;;;;;;66.50;32.67;;;;;;;9.18;100.00;101714.38;5089184;28;20236;-70
2023/03/20 00:59:58;;;;;;;69.83;33.00;;;;;;;9.18;100.00;101721.16;5108690;28;20219;-71
2023/03/20 01:02:28;;;;;;;65.23;31.77;;;;;;;9.17;100.00;101719.44;5105547;28;20215;-70
2023/03/20 01:04:54;;;;;;;61.43;30.87;;;;;;;9.16;100.00;101721.09;5111600;28;20250;-70
2023/03/20 01:07:20;;;;;;;64.50;32.10;;;;;;;9.14;100.00;101722.72;5090401;28;20550;-69
2023/03/20 01:09:46;;;;;;;58.80;29.50;;;;;;;9.14;100.00;101719.28;5108742;28;20190;-70
2023/03/20 01:12:13;;;;;;;62.40;29.53;;;;;;;9.13;100.00;101718.41;5110619;28;20298;-71
2023/03/20 01:14:40;;;;;;;60.30;29.67;;;;;;;9.11;100.00;101722.59;5111523;28;20196;-70
2023/03/20 01:17:16;;;;;;;59.17;29.47;;;;;;;9.10;100.00;101722.53;5089838;28;20307;-70
2023/03/20 01:19:41;;;;;;;57.83;27.37;;;;;;;9.08;100.00;101719.91;5110106;28;20197;-70
2023/03/20 01:22:07;;;;;;;55.90;28.33;;;;;;;9.08;100.00;101711.41;5076821;28;20207;-70
2023/03/20 01:24:32;;;;;;;59.20;28.73;;;;;;;9.08;100.00;101719.06;5092675;28;20199;-71
2023/03/20 01:27:02;;;;;;;63.57;30.27;;;;;;;9.04;100.00;101728.25;5092725;28;20195;-70
2023/03/20 01:29:28;;;;;;;61.13;29.90;;;;;;;9.04;100.00;101723.16;5109094;28;20202;-70
2023/03/20 01:31:53;;;;;;;63.90;29.83;;;;;;;9.04;100.00;101722.31;5110561;28;20305;-72
2023/03/20 01:34:21;;;;;;;62.57;29.37;;;;;;;9.04;100.00;101723.16;5092814;28;20195;-72
2023/03/20 01:36:50;;;;;;;64.70;30.80;;;;;;;9.03;100.00;101726.53;5091661;28;20180;-70
2023/03/20 01:39:17;;;;;;;60.70;29.73;;;;;;;9.03;100.00;101723.97;5095187;28;20234;-72
2023/03/20 01:41:44;;;;;;;61.93;29.93;;;;;;;9.04;100.00;101730.81;5107086;28;20204;-70
2023/03/20 01:44:26;;;;;;;65.37;29.23;;;;;;;9.04;100.00;101727.41;5080964;28;20753;-72
2023/03/20 01:46:55;;;;;;;58.30;27.97;;;;;;;9.04;100.00;101725.72;5087671;28;20194;-71
2023/03/20 01:49:21;;;;;;;58.83;28.03;;;;;;;9.07;100.00;101732.66;5090143;28;20278;-71
2023/03/20 01:51:50;;;;;;;60.57;28.90;;;;;;;9.06;100.00;101729.22;5086989;28;20211;-71
2023/03/20 01:54:30;;;;;;;55.80;27.87;;;;;;;9.08;100.00;101719.91;5088951;28;20286;-71
2023/03/20 01:57:08;;;;;;;55.17;26.97;;;;;;;9.11;100.00;101734.50;5082673;28;20195;-72
2023/03/20 01:59:44;;;;;;;58.63;28.23;;;;;;;9.11;100.00;101724.28;5090591;28;20870;-71
2023/03/20 02:02:14;;;;;;;57.13;27.67;;;;;;;9.11;100.00;101724.28;5090423;28;20584;-70
2023/03/20 02:04:45;;;;;;;56.73;28.40;;;;;;;9.13;100.00;101720.97;5089792;28;20188;-72
2023/03/20 02:07:17;;;;;;;54.60;26.37;;;;;;;9.13;100.00;101720.97;5090788;28;20179;-71
2023/03/20 02:10:07;;;;;;;57.13;27.33;;;;;;;9.12;100.00;101726.91;5085830;28;20188;-72
2023/03/20 02:12:41;;;;;;;56.97;27.63;;;;;;;9.14;100.00;101729.50;5091235;28;20214;-71
2023/03/20 02:15:10;;;;;;;52.97;26.23;;;;;;;9.15;100.00;101727.03;5072859;28;20244;-70
2023/03/20 02:17:56;;;;;;;57.47;28.37;;;;;;;9.17;100.00;101732.19;5091185;28;20206;-70
2023/03/20 02:20:50;;;;;;;53.40;26.80;;;;;;;9.17;100.00;101729.66;5109651;28;20184;-71
2023/03/20 02:23:34;;;;;;;52.23;26.30;;;;;;;9.16;100.00;101731.31;5087528;28;20283;-70
2023/03/20 02:26:21;;;;;;;53.93;27.00;;;;;;;9.18;100.00;101718.59;5091019;28;20455;-71
2023/03/20 02:28:48;;;;;;;54.40;25.80;;;;;;;9.15;100.00;101719.34;5086568;28;20190;-70
2023/03/20 02:31:32;;;;;;;57.40;27.40;;;;;;;9.16;100.00;101715.09;5089711;28;20310;-71
2023/03/20 02:34:37;;;;;;;52.73;26.50;;;;;;;9.18;100.00;101718.59;5102565;28;20192;-73
2023/03/20 02:37:12;;;;;;;54.70;26.50;;;;;;;9.19;100.00;101708.44;5090228;28;20187;-69
2023/03/20 02:39:56;;;;;;;58.87;26.63;;;;;;;9.22;100.00;101713.66;5090450;28;20202;-70
2023/03/20 02:42:26;;;;;;;54.57;25.97;;;;;;;9.22;100.00;101707.69;5089237;28;20235;-71
2023/03/20 02:45:12;;;;;;;57.87;27.90;;;;;;;9.23;100.00;101705.22;5086018;28;20275;-72
2023/03/20 02:47:54;;;;;;;57.50;26.80;;;;;;;9.25;100.00;101707.78;5090945;28;20606;-72
2023/03/20 02:50:56;;;;;;;58.73;26.93;;;;;;;9.26;100.00;101707.00;5086310;28;20187;-72
2023/03/20 02:53:47;;;;;;;55.60;27.47;;;;;;;9.27;100.00;101713.84;5079356;28;20203;-71
2023/03/20 02:56:48;;;;;;;58.37;27.73;;;;;;;9.28;100.00;101710.47;5090096;28;20187;-70
2023/03/20 02:59:27;;;;;;;55.10;26.83;;;;;;;9.27;100.00;101701.06;5043591;28;20194;-71
2023/03/20 03:02:23;;;;;;;53.33;27.17;;;;;;;9.29;100.00;101709.66;5078930;28;20746;-72
2023/03/20 03:05:00;;;;;;;58.13;26.27;;;;;;;9.30;100.00;101704.59;5072182;28;20221;-70
2023/03/20 03:07:31;;;;;;;51.07;26.30;;;;;;;9.32;100.00;101700.44;5102291;28;20194;-71
2023/03/20 03:10:27;;;;;;;59.07;27.87;;;;;;;9.32;100.00;101708.13;5101309;28;20669;-71
2023/03/20 03:12:55;;;;;;;52.27;26.70;;;;;;;9.34;100.00;101708.16;5081442;28;20657;-70
2023/03/20 03:15:31;;;;;;;58.20;27.53;;;;;;;9.31;100.00;101708.91;5087553;28;20192;-72
2023/03/20 03:17:59;;;;;;;54.27;26.33;;;;;;;9.31;100.00;101705.50;5091144;28;20218;-73
2023/03/20 03:20:33;;;;;;;56.47;26.43;;;;;;;9.32;100.00;101697.00;5089232;28;20664;-70
2023/03/20 03:23:00;;;;;;;57.37;28.33;;;;;;;9.32;100.00;101704.66;5086179;28;20215;-70
2023/03/20 03:25:31;;;;;;;55.50;27.37;;;;;;;9.34;100.00;101706.47;5089035;28;20657;-70
2023/03/20 03:28:26;;;;;;;53.37;26.73;;;;;;;9.33;100.00;101709.84;5091146;28;20215;-70
2023/03/20 03:30:55;;;;;;;52.27;25.63;;;;;;;9.33;100.00;101703.84;5100811;27;20684;-70
2023/03/20 03:33:21;;;;;;;46.87;24.23;;;;;;;9.33;100.00;101709.84;5087155;28;20563;-70
2023/03/20 03:35:49;;;;;;;40.20;20.73;;;;;;;9.32;100.00;101705.56;5072736;28;20188;-71
2023/03/20 03:38:26;;;;;;;33.47;19.93;;;;;;;9.31;100.00;101701.22;5088340;28;20207;-72
2023/03/20 03:41:31;;;;;;;33.40;18.23;;;;;;;9.29;100.00;101700.31;5088220;28;20191;-69
2023/03/20 03:44:19;;;;;;;32.73;17.07;;;;;;;9.27;100.00;101703.63;5044186;28;20224;-70
2023/03/20 03:47:02;;;;;;;31.00;17.60;;;;;;;9.28;100.00;101698.59;5044397;28;20268;-69
2023/03/20 03:49:33;;;;;;;33.63;17.30;;;;;;;9.28;100.00;101693.47;5088163;27;20192;-71
2023/03/20 03:52:04;;;;;;;33.43;16.67;;;;;;;9.28;100.00;101690.91;5086767;28;20238;-70
2023/03/20 03:54:40;;;;;;;34.80;18.47;;;;;;;9.28;100.00;101690.91;5106502;28;20226;-71
2023/03/20 03:57:48;;;;;;;28.60;16.00;;;;;;;9.24;100.00;101686.50;5025830;28;20742;-73
2023/03/20 04:00:22;;;;;;;30.10;16.60;;;;;;;9.24;100.00;101685.63;5025019;28;20199;-71
2023/03/20 04:02:52;;;;;;;27.47;15.40;;;;;;;9.24;100.00;101683.06;5070089;28;20219;-72
2023/03/20 04:05:19;;;;;;;28.23;15.53;;;;;;;9.24;100.00;101681.38;5089936;28;20194;-72
2023/03/20 04:07:46;;;;;;;27.57;15.67;;;;;;;9.24;100.00;101686.50;5090130;28;20191;-72
2023/03/20 04:10:13;;;;;;;27.80;15.80;;;;;;;9.23;100.00;101684.75;5085051;28;20184;-71
2023/03/20 04:12:42;;;;;;;27.10;15.63;;;;;;;9.25;100.00;101688.22;5085995;28;20289;-72
2023/03/20 04:15:09;;;;;;;26.00;16.20;;;;;;;9.24;100.00;101686.50;5075920;28;20536;-72
2023/03/20 04:17:35;;;;;;;23.73;14.63;;;;;;;9.21;100.00;101683.81;5091141;28;21163;-73
2023/03/20 04:20:01;;;;;;;24.50;15.07;;;;;;;9.21;100.00;101688.94;5085084;28;20195;-71
2023/03/20 04:22:26;;;;;;;27.93;15.37;;;;;;;9.19;100.00;101685.47;5084694;28;20214;-71
2023/03/20 04:24:53;;;;;;;24.67;15.07;;;;;;;9.20;100.00;101694.84;5087343;28;20183;-72
2023/03/20 04:27:19;;;;;;;25.10;14.77;;;;;;;9.20;100.00;101691.41;5105750;28;20190;-71
2023/03/20 04:29:45;;;;;;;26.80;15.27;;;;;;;9.18;100.00;101688.81;5089874;28;20195;-71
2023/03/20 04:32:30;;;;;;;22.40;13.00;;;;;;;9.18;100.00;101687.94;5088909;28;20626;-72
2023/03/20 04:35:09;;;;;;;26.97;14.73;;;;;;;9.19;100.00;101684.56;5101077;28;20278;-70
2023/03/20 04:38:00;;;;;;;27.13;14.97;;;;;;;9.15;100.00;101683.59;5102779;28;20298;-70
2023/03/20 04:40:30;;;;;;;25.30;14.67;;;;;;;9.11;100.00;101683.41;5093764;28;20543;-70
2023/03/20 04:42:56;;;;;;;23.23;13.60;;;;;;;9.13;100.00;101689.47;5094147;28;20199;-71
2023/03/20 04:45:21;;;;;;;23.20;13.70;;;;;;;9.13;100.00;101682.63;5108763;28;20279;-71
2023/03/20 04:47:47;;;;;;;20.43;12.80;;;;;;;9.09;100.00;101679.94;5078832;28;20180;-71
2023/03/20 04:50:13;;;;;;;18.80;10.70;;;;;;;9.06;100.00;101685.78;5090520;28;20624;-70
2023/03/20 04:52:39;;;;;;;18.20;10.40;;;;;;;9.04;100.00;101682.28;5092731;28;20573;-73
2023/03/20 04:55:06;;;;;;;15.37;9.20;;;;;;;9.03;100.00;101687.38;5090629;28;20179;-72
2023/03/20 04:57:33;;;;;;;16.60;9.43;;;;;;;9.02;100.00;101680.47;5093725;28;20234;-71
2023/03/20 04:59:58;;;;;;;12.77;8.13;;;;;;;9.00;100.00;101683.00;5090641;28;20832;-71
2023/03/20 05:02:24;;;;;;;14.47;8.97;;;;;;;8.97;100.00;101685.44;5086252;28;20215;-71
2023/03/20 05:04:49;;;;;;;15.40;9.30;;;;;;;8.97;100.00;101685.44;5095275;28;20194;-72
2023/03/20 05:07:15;;;;;;;13.00;8.60;;;;;;;8.94;100.00;101680.19;5092845;28;20271;-73
2023/03/20 05:10:02;;;;;;;14.20;9.10;;;;;;;8.95;100.00;101688.75;5090233;28;20192;-73
2023/03/20 05:12:32;;;;;;;14.43;8.80;;;;;;;8.93;100.00;101683.56;5085401;28;20216;-71
2023/03/20 05:15:16;;;;;;;13.17;8.97;;;;;;;8.93;100.00;101677.56;5107894;28;20751;-70
2023/03/20 05:18:01;;;;;;;17.63;9.87;;;;;;;8.87;100.00;101679.91;5090931;28;20223;-72
2023/03/20 05:20:36;;;;;;;16.33;9.17;;;;;;;8.82;100.00;101679.72;5091817;28;20195;-70
2023/03/20 05:23:21;;;;;;;17.07;9.40;;;;;;;8.84;100.00;101687.47;5066471;28;20214;-73
2023/03/20 05:26:13;;;;;;;18.30;9.33;;;;;;;8.80;100.00;101686.44;5102486;28;20224;-72
2023/03/20 05:29:11;;;;;;;15.67;8.77;;;;;;;8.85;100.00;101686.63;5074610;28;20210;-71
2023/03/20 05:31:57;;;;;;;14.70;8.90;;;;;;;8.82;100.00;101684.84;5095277;28;20222;-70
2023/03/20 05:34:37;;;;;;;16.80;9.20;;;;;;;8.81;100.00;101682.22;5092907;28;20217;-70
2023/03/20 05:37:16;;;;;;;16.40;8.70;;;;;;;8.84;100.00;101685.75;5087661;28;20852;-71
2023/03/20 05:40:02;;;;;;;14.27;9.43;;;;;;;8.82;100.00;101692.50;5089038;28;20200;-71
2023/03/20 05:42:47;;;;;;;14.47;8.33;;;;;;;8.84;100.00;101695.97;5105149;28;20215;-70
2023/03/20 05:45:19;;;;;;;15.43;9.00;;;;;;;8.85;100.00;101692.59;5107732;28;20561;-71
2023/03/20 05:48:07;;;;;;;12.93;7.27;;;;;;;8.85;100.00;101702.81;5094063;28;20184;-72
2023/03/20 05:50:38;;;;;;;12.33;8.00;;;;;;;8.79;100.00;101704.25;5108102;28;20199;-70
2023/03/20 05:53:12;;;;;;;12.33;7.90;;;;;;;8.79;100.00;101705.13;5081914;28;20258;-71
2023/03/20 05:55:57;;;;;;;12.23;7.87;;;;;;;8.80;100.00;101708.56;5098911;28;20274;-72
2023/03/20 05:58:25;;;;;;;11.60;7.83;;;;;;;8.77;100.00;101709.31;5105807;28;20211;-71
2023/03/20 06:01:20;;;;;;;13.53;8.17;;;;;;;8.79;100.00;101710.25;5095788;28;20298;-70
2023/03/20 06:03:54;;;;;;;12.67;7.97;;;;;;;8.79;100.00;101711.91;5105359;28;20544;-71
2023/03/20 06:06:40;;;;;;;12.20;7.83;;;;;;;8.78;100.00;101716.16;5109261;28;20660;-70
2023/03/20 06:09:06;;;;;;;12.47;7.53;;;;;;;8.80;100.00;101711.97;5086653;28;20217;-73
2023/03/20 06:11:32;;;;;;;11.97;7.93;;;;;;;8.80;100.00;101721.34;5083586;28;20218;-73
2023/03/20 06:13:58;;;;;;;12.40;7.37;;;;;;;8.82;100.00;101722.25;5089348;28;20291;-70
2023/03/20 06:16:30;;;;;;;12.63;7.80;;;;;;;8.81;100.00;101713.72;5092708;28;20581;-71
2023/03/20 06:18:56;;;;;;;12.23;7.70;;;;;;;8.84;100.00;101718.09;5090708;28;20227;-71
2023/03/20 06:21:21;;;;;;;11.40;7.53;;;;;;;8.84;100.00;101716.41;5087463;28;20264;-70
2023/03/20 06:23:46;;;;;;;10.53;7.33;;;;;;;8.85;100.00;101724.94;5083663;28;20185;-70
2023/03/20 06:26:12;;;;;;;11.37;7.40;;;;;;;8.86;100.00;101725.00;5090064;28;20596;-73
2023/03/20 06:28:58;;;;;;;10.13;7.10;;;;;;;8.87;100.00;101723.31;5103821;28;20191;-72
2023/03/20 06:31:23;;;;;;;11.20;7.43;;;;;;;8.88;100.00;101717.38;5071124;28;20215;-72
2023/03/20 06:33:49;;;;;;;12.10;7.40;;;;;;;8.92;100.00;101717.59;5107716;28;20263;-71
2023/03/20 06:36:15;;;;;;;11.27;7.43;;;;;;;8.93;100.00;101726.97;5088335;28;20587;-71
2023/03/20 06:38:40;;;;;;;12.53;7.30;;;;;;;8.92;100.00;101730.34;5087918;28;20339;-71
2023/03/20 06:41:11;;;;;;;11.97;7.17;;;;;;;8.95;100.00;101735.59;5085575;28;20207;-72
2023/03/20 06:43:38;;;;;;;11.47;7.73;;;;;;;8.98;100.00;101733.16;5089878;28;20664;-72
2023/03/20 06:46:04;;;;;;;10.57;7.23;;;;;;;9.01;100.00;101732.38;5086491;28;20189;-70
2023/03/20 06:48:32;;;;;;;14.03;8.40;;;;;;;9.02;100.00;101732.47;5087641;28;20193;-71
2023/03/20 06:50:59;;;;;;;10.67;7.00;;;;;;;9.00;100.00;101733.22;5091111;28;20187;-72
2023/03/20 06:53:31;;;;;;;10.23;7.10;;;;;;;9.02;100.00;101732.47;5086729;28;20204;-71
2023/03/20 06:56:05;;;;;;;11.57;7.40;;;;;;;9.06;100.00;101730.88;5088244;28;20279;-72
2023/03/20 06:58:30;;;;;;;11.80;7.60;;;;;;;9.07;100.00;101728.41;5108381;28;21001;-72
2023/03/20 07:00:56;;;;;;;9.87;6.90;;;;;;;9.06;100.00;101734.31;5086767;28;20563;-71
2023/03/20 07:03:22;;;;;;;10.93;7.13;;;;;;;9.08;100.00;101739.50;5084326;28;20176;-71
2023/03/20 07:05:48;;;;;;;10.33;7.43;;;;;;;9.07;100.00;101736.06;5086900;28;20192;-71
2023/03/20 07:08:14;;;;;;;9.90;6.83;;;;;;;9.13;100.00;101748.22;5084057;28;20242;-73
2023/03/20 07:10:40;;;;;;;11.10;6.70;;;;;;;9.11;100.00;101749.81;5072939;28;20195;-71
2023/03/20 07:13:05;;;;;;;11.33;7.53;;;;;;;9.11;100.00;101745.59;5084766;28;20268;-71
2023/03/20 07:15:33;;;;;;;10.23;6.80;;;;;;;9.15;100.00;101744.91;5089290;28;20207;-72
2023/03/20 07:17:59;;;;;;;9.33;6.03;;;;;;;9.17;100.00;101753.50;5090610;28;20215;-71
2023/03/20 07:20:26;;;;;;;9.03;6.37;;;;;;;9.19;100.00;101754.44;5106228;28;20825;-72
2023/03/20 07:22:51;;;;;;;10.53;6.43;;;;;;;9.23;100.00;101757.97;5091318;28;20207;-73
2023/03/20 07:25:21;;;;;;;8.57;6.30;;;;;;;9.23;100.00;101752.88;5082398;28;20291;-73
2023/03/20 07:27:49;;;;;;;9.63;6.17;;;;;;;9.26;100.00;101758.97;5089712;28;20695;-73
2023/03/20 07:30:17;;;;;;;8.00;5.40;;;;;;;9.25;100.00;101756.34;5091388;28;20192;-71
2023/03/20 07:32:44;;;;;;;9.50;6.00;;;;;;;9.20;100.00;101760.41;5074121;28;20207;-71
2023/03/20 07:35:10;;;;;;;9.00;5.73;;;;;;;9.18;100.00;101760.38;5088731;28;20195;-71
2023/03/20 07:37:38;;;;;;;8.23;5.83;;;;;;;9.15;100.00;101754.25;5062466;28;20215;-72
2023/03/20 07:40:04;;;;;;;8.40;5.77;;;;;;;9.19;100.00;101759.56;5109195;28;20187;-70
2023/03/20 07:42:31;;;;;;;9.63;6.10;;;;;;;9.22;100.00;101761.34;5102605;28;20265;-72
2023/03/20 07:45:05;;;;;;;8.80;6.03;;;;;;;9.20;100.00;101761.28;5083170;28;20740;-72
2023/03/20 07:47:31;;;;;;;10.23;6.20;;;;;;;9.24;100.00;101765.72;5088529;28;20192;-72
2023/03/20 07:49:57;;;;;;;10.77;6.13;;;;;;;9.19;100.00;101764.66;5087916;28;20187;-72
2023/03/20 07:52:22;;;;;;;8.57;6.20;;;;;;;9.16;100.00;101767.09;5084592;28;20212;-71
2023/03/20 07:54:47;;;;;;;9.07;6.03;;;;;;;9.17;100.00;101766.25;5104106;28;20566;-70
2023/03/20 07:57:13;;;;;;;9.07;6.10;;;;;;;9.20;100.00;101768.06;5089390;28;20187;-71
2023/03/20 07:59:38;;;;;;;9.10;5.90;;;;;;;9.26;100.00;101771.75;5087323;28;20198;-70
2023/03/20 08:02:04;;;;;;;9.20;6.33;;;;;;;9.35;100.00;101766.13;5106675;28;20280;-70
2023/03/20 08:04:30;;;;;;;8.43;6.33;;;;;;;9.42;100.00;101769.00;5103832;28;20188;-70
2023/03/20 08:06:55;;;;;;;9.90;6.20;;;;;;;9.46;100.00;101769.97;5102103;28;20210;-70
2023/03/20 08:09:20;;;;;;;10.40;7.13;;;;;;;9.45;100.00;101769.09;5106431;28;20199;-69
2023/03/20 08:11:46;;;;;;;9.83;6.87;;;;;;;9.52;100.00;101767.63;5110196;28;20628;-71
2023/03/20 08:14:12;;;;;;;8.83;6.70;;;;;;;9.50;100.00;101775.25;5112095;28;20191;-70
2023/03/20 08:16:37;;;;;;;8.73;5.83;;;;;;;9.53;100.00;101766.81;5108315;28;20277;-70
2023/03/20 08:19:04;;;;;;;9.80;6.30;;;;;;;9.55;100.00;101765.22;5109615;28;20700;-69
2023/03/20 08:21:30;;;;;;;8.90;7.10;;;;;;;9.58;100.00;101773.00;5104292;28;20222;-70
2023/03/20 08:23:56;;;;;;;11.23;6.70;;;;;;;9.63;100.00;101768.94;5107374;28;20577;-69
2023/03/20 08:26:22;;;;;;;11.03;6.40;;;;;;;9.67;100.00;101781.88;5110135;28;20187;-70
2023/03/20 08:28:48;;;;;;;9.13;6.47;;;;;;;9.79;100.00;101774.69;5112703;28;20275;-70
2023/03/20 08:31:16;;;;;;;9.80;7.07;;;;;;;9.85;100.00;101779.13;5107734;28;20340;-70
2023/03/20 08:33:44;;;;;;;10.27;7.17;;;;;;;9.90;100.00;101786.16;5105556;28;20661;-70
2023/03/20 08:36:10;;;;;;;9.27;6.23;;;;;;;9.89;100.00;101791.22;5107674;28;20195;-70
2023/03/20 08:38:35;;;;;;;10.13;6.00;;;;;;;9.85;100.00;101791.91;5108490;28;20215;-70
2023/03/20 08:41:01;;;;;;;10.47;5.97;;;;;;;9.97;100.00;101798.38;5093834;28;20202;-74
2023/03/20 08:43:26;;;;;;;8.47;6.13;;;;;;;9.97;100.00;101795.84;5111127;28;20191;-69
2023/03/20 08:45:53;;;;;;;10.83;6.57;;;;;;;10.01;100.00;101800.25;5109284;28;20243;-69
2023/03/20 08:48:18;;;;;;;8.23;6.27;;;;;;;9.96;100.00;101795.78;5107238;28;20241;-72
2023/03/20 08:50:44;;;;;;;8.47;6.83;;;;;;;9.93;100.00;101801.66;5076839;28;20698;-71
2023/03/20 08:53:09;;;;;;;8.50;6.53;;;;;;;9.95;100.00;101794.03;5106363;28;20261;-70
2023/03/20 08:55:35;;;;;;;9.17;7.00;;;;;;;9.96;100.00;101794.06;5088842;28;20716;-70
2023/03/20 08:58:00;;;;;;;9.10;6.47;;;;;;;9.98;100.00;101795.00;5111950;28;20395;-70
2023/03/20 09:00:26;;;;;;;9.87;6.83;;;;;;;9.96;100.00;101794.06;5105555;28;20226;-70
2023/03/20 09:02:52;;;;;;;8.50;6.60;;;;;;;9.94;100.00;101788.03;5108803;28;20220;-70
2023/03/20 09:05:17;;;;;;;11.67;7.23;;;;;;;9.95;100.00;101794.03;5108736;28;20245;-72
2023/03/20 09:07:43;;;;;;;12.20;6.70;;;;;;;9.94;100.00;101800.81;5108993;28;20183;-70
2023/03/20 09:10:09;;;;;;;10.80;6.80;;;;;;;10.02;100.00;101793.44;5108688;28;20212;-70
2023/03/20 09:12:35;;;;;;;7.57;6.43;;;;;;;10.13;100.00;101795.59;5108955;28;21757;-70
2023/03/20 09:15:00;;;;;;;9.10;7.07;;;;;;;10.19;100.00;101792.41;5103550;28;20200;-70
2023/03/20 09:17:26;;;;;;;9.93;7.20;;;;;;;10.33;100.00;101791.19;5106253;28;20296;-71
2023/03/20 09:19:51;;;;;;;11.37;7.03;;;;;;;10.34;100.00;101788.69;5107837;28;20703;-71
2023/03/20 09:22:17;;;;;;;9.87;6.97;;;;;;;10.35;100.00;101792.09;5110525;28;20211;-72
2023/03/20 09:24:43;;;;;;;10.10;7.20;;;;;;;10.27;100.00;101796.97;5111040;28;20198;-71
2023/03/20 09:27:09;;;;;;;9.37;6.67;;;;;;;10.20;100.00;101786.44;5108255;28;20328;-71
2023/03/20 09:29:34;;;;;;;11.73;7.67;;;;;;;10.29;100.00;101782.53;5105209;28;20275;-71
2023/03/20 09:32:00;;;;;;;10.43;7.97;;;;;;;10.33;100.00;101786.06;5105427;28;20353;-72
2023/03/20 09:34:26;;;;;;;11.27;7.73;;;;;;;10.37;100.00;101773.41;5105892;28;20197;-72
2023/03/20 09:36:51;;;;;;;9.67;7.20;;;;;;;10.32;100.00;101781.78;5107184;28;20191;-70
2023/03/20 09:39:17;;;;;;;11.27;7.47;;;;;;;10.41;100.00;101785.50;5105112;28;20284;-70
2023/03/20 09:41:47;;;;;;;9.23;7.13;;;;;;;10.31;100.00;101787.69;5099538;28;20226;-70
2023/03/20 09:44:35;;;;;;;9.80;6.93;;;;;;;10.25;100.00;101782.38;5100866;28;20661;-70
2023/03/20 09:47:13;;;;;;;10.77;7.97;;;;;;;10.31;100.00;101786.00;5104786;28;20225;-70
2023/03/20 09:49:55;;;;;;;11.60;7.37;;;;;;;10.28;100.00;101791.00;5105965;28;20191;-72
2023/03/20 09:52:30;;;;;;;10.50;7.23;;;;;;;10.30;100.00;101791.97;5083838;28;20207;-71
2023/03/20 09:55:01;;;;;;;9.77;7.37;;;;;;;10.30;100.00;101797.06;5101194;28;20187;-71
2023/03/20 09:57:38;;;;;;;10.80;6.97;;;;;;;10.35;100.00;101787.88;5104732;28;20215;-72
2023/03/20 10:00:10;;;;;;;9.77;6.40;;;;;;;10.37;100.00;101795.63;5107420;28;20211;-70
2023/03/20 10:02:50;;;;;;;9.53;7.13;;;;;;;10.34;100.00;101788.69;5105031;28;20219;-71
2023/03/20 10:05:28;;;;;;;11.13;7.03;;;;;;;10.28;100.00;101811.50;5084246;28;20710;-72
2023/03/20 10:07:55;;;;;;;11.47;7.07;;;;;;;10.29;100.00;101797.03;5107248;28;20290;-73
2023/03/20 10:10:36;;;;;;;10.00;7.53;;;;;;;10.32;100.00;101790.31;5105723;28;20204;-71
2023/03/20 10:13:34;;;;;;;10.87;7.00;;;;;;;10.26;100.00;101802.91;5090136;28;20628;-72
2023/03/20 10:16:23;;;;;;;12.57;7.07;;;;;;;10.23;100.00;101807.06;5074661;28;20586;-70
2023/03/20 10:19:23;;;;;;;8.63;6.87;;;;;;;10.21;100.00;101811.22;5107613;28;20234;-70
2023/03/20 10:22:12;;;;;;;10.87;7.30;;;;;;;10.08;100.00;101811.59;5081671;28;20215;-71
2023/03/20 10:25:07;;;;;;;13.57;7.70;;;;;;;10.17;100.00;101819.59;5106826;28;22599;-70
2023/03/20 10:27:39;;;;;;;10.43;7.63;;;;;;;10.18;100.00;101809.44;5102720;28;20556;-71
2023/03/20 10:30:14;;;;;;;9.80;7.00;;;;;;;10.15;100.00;101811.00;5091922;28;20219;-71
2023/03/20 10:33:01;;;;;;;11.50;7.13;;;;;;;10.12;100.00;101803.22;5105409;28;20226;-71
2023/03/20 10:35:54;;;;;;;11.03;8.10;;;;;;;10.16;100.00;101807.63;5088196;28;20672;-72
2023/03/20 10:38:26;;;;;;;9.57;7.30;;;;;;;10.23;100.00;101804.50;5106545;28;20212;-70
2023/03/20 10:40:53;;;;;;;12.60;6.60;;;;;;;10.28;100.00;101791.00;5104419;28;20278;-71
2023/03/20 10:43:34;;;;;;;13.23;7.43;;;;;;;10.37;100.00;101793.91;5106236;28;20188;-71
2023/03/20 10:46:07;;;;;;;11.37;7.33;;;;;;;10.26;100.00;101789.22;5104610;28;20184;-72
2023/03/20 10:48:37;;;;;;;14.13;7.40;;;;;;;10.19;100.00;101785.56;5108041;28;20652;-71
2023/03/20 10:51:05;;;;;;;11.77;6.80;;;;;;;10.23;100.00;101768.66;5105696;28;20195;-71
2023/03/20 10:53:40;;;;;;;10.73;6.40;;;;;;;10.30;100.00;101774.03;5102994;28;20196;-72
2023/03/20 10:56:12;;;;;;;10.80;5.47;;;;;;;10.30;100.00;101768.91;5103146;28;20218;-70
2023/03/20 10:58:40;;;;;;;13.87;7.70;;;;;;;10.28;100.00;101770.53;5108642;28;20246;-72
2023/03/20 11:01:06;;;;;;;13.13;7.10;;;;;;;10.22;100.00;101780.56;5090354;28;20186;-71
2023/03/20 11:03:33;;;;;;;10.90;7.60;;;;;;;10.18;100.00;101765.91;5106055;28;20203;-73
2023/03/20 11:06:03;;;;;;;12.77;7.67;;;;;;;10.28;100.00;101762.84;5108092;28;20187;-72
2023/03/20 11:08:35;;;;;;;11.87;6.90;;;;;;;10.35;100.00;101757.16;5107343;28;20203;-72
2023/03/20 11:11:03;;;;;;;9.03;6.37;;;;;;;10.34;100.00;101754.53;5088580;28;20274;-71
2023/03/20 11:13:28;;;;;;;10.57;6.43;;;;;;;10.35;100.00;101769.94;5088291;28;20639;-72
2023/03/20 11:15:54;;;;;;;11.90;6.40;;;;;;;10.42;100.00;101771.88;5107771;28;20204;-71
2023/03/20 11:18:24;;;;;;;8.63;5.93;;;;;;;10.39;100.00;101766.69;5105444;28;20249;-70
2023/03/20 11:20:53;;;;;;;12.17;6.40;;;;;;;10.47;100.00;101761.81;5102073;28;20202;-71
2023/03/20 11:23:23;;;;;;;10.60;6.43;;;;;;;10.46;100.00;101745.56;5106878;28;20278;-70
2023/03/20 11:26:13;;;;;;;12.07;6.27;;;;;;;10.58;100.00;101737.44;5106909;28;20200;-70
2023/03/20 11:28:55;;;;;;;10.40;6.00;;;;;;;10.78;100.00;101727.03;5106788;27;20550;-72
2023/03/20 11:31:35;;;;;;;10.13;5.90;;;;;;;10.91;100.00;101728.28;5102833;28;20215;-70
2023/03/20 11:34:12;;;;;;;7.53;5.37;;;;;;;10.82;100.00;101728.00;5106971;28;20578;-71
2023/03/20 11:36:40;;;;;;;9.00;5.47;;;;;;;10.66;100.00;101741.13;5106254;28;20202;-71